N4312R -KSAN
Flight info
| Callsign | N4312R |
|---|---|
| Flight time | N/A |
| Altitude | VFR |
| Route | |
| Aircraft |
Departure
| Time | N/A |
|---|---|
| Airport | - |
Arrival
| Time | 2026-04-26 18:50 |
|---|---|
| Airport | San Diego International Airport (KSAN) |
| Time | Latitude | Longitude | Altitude | Speed | Heading |
|---|---|---|---|---|---|
| 2026-04-26 18:50 | 32.73410 | -117.17974 | 22 ft | 0 kts | 104° |
| 2026-04-26 18:58 | 32.73379 | -117.17952 | 21 ft | 13 kts | 174° |
| 2026-04-26 18:58 | 32.73291 | -117.17974 | 19 ft | 13 kts | 195° |
| 2026-04-26 18:58 | 32.73279 | -117.17978 | 19 ft | 0 kts | 196° |
| 2026-04-26 18:59 | 32.73278 | -117.17979 | 19 ft | 1 kts | 206° |
| 2026-04-26 18:59 | 32.73247 | -117.17980 | 17 ft | 11 kts | 154° |
| 2026-04-26 18:59 | 32.73200 | -117.17852 | 17 ft | 18 kts | 107° |
| 2026-04-26 18:59 | 32.73168 | -117.17718 | 18 ft | 13 kts | 109° |
| 2026-04-26 19:00 | 32.73168 | -117.17640 | 18 ft | 9 kts | 59° |
| 2026-04-26 19:00 | 32.73170 | -117.17617 | 17 ft | 0 kts | 124° |
| 2026-04-26 19:06 | 32.73163 | -117.17608 | 17 ft | 5 kts | 134° |
| 2026-04-26 19:06 | 32.73122 | -117.17575 | 17 ft | 7 kts | 152° |
| 2026-04-26 19:06 | 32.73091 | -117.17547 | 17 ft | 0 kts | 148° |
| 2026-04-26 19:09 | 32.73074 | -117.17536 | 17 ft | 13 kts | 153° |
| 2026-04-26 19:09 | 32.73028 | -117.17632 | 16 ft | 26 kts | 287° |
| 2026-04-26 19:09 | 32.73113 | -117.17962 | 14 ft | 63 kts | 287° |
| 2026-04-26 19:10 | 32.73158 | -117.18151 | 23 ft | 0 kts | 289° |
| 2026-04-26 19:10 | 32.73413 | -117.17974 | 22 ft | 0 kts | 290° |
| 2026-04-26 19:12 | 32.73412 | -117.17969 | 22 ft | 8 kts | 281° |
| 2026-04-26 19:12 | 32.73414 | -117.17942 | 21 ft | 0 kts | 211° |